Terminal Aerodrome Forecast
Issued by NWS

Home | Current Version | Previous Version | Text Only | Print | Product List | Glossary On
Versions: 1 2 3 4 5 6 7 8 9 10 11 12 13 14 15 16 17 18 19 20 21 22 23 24 25 26
468
FTUS46 KMTR 261824 CCA
TAFSFO
TAF COR
KSFO 261824Z 2618/2724 27017KT P6SM BKN025
      TEMPO 2620/2624 SCT025
     FM270000 27017G24KT P6SM BKN020
     FM270400 27012KT P6SM OVC015
     FM271730 27010KT P6SM FEW025
     FM272100 28015G22KT P6SM FEW025=

USA.gov is the U.S. government's official web portal to all federal, state and local government web resources and services.